OIAI  Shahid Asyaee  Airport

Iran

Add Bookmark
ICAO OIAI
Type Airport
Status Operational
Latitude
32° 0' 8" N
32.002399
Longitude
49° 16' 13" E
49.270401
Local (DST + 5) UTC (GMT + 4)
Jul 29, 2015 10:22 Jul 29, 2015 17:52
Sunrise-Sunset Local UTC
Begin Civil Twilight 05:58 01:28
Sunrise 06:24 01:54
Sunset 08:13 15:43
End Civil Twilight 08:40 16:10
VFR
VFR
MVFR
MVFR
IFR
IFR
LIFR
LIFR
Unknown
Unavailable

Current Weather

METAR Observed VFR
OIAI 291050Z 27008KT CAVOK 46/11 Q0997 Wed, Jul 29, 2015 @ 10:50 UTC
(7 Hours, 2 Minutes ago)
Visual Flight Rules
Wind Visibility Conditions
270° at 8 knots (15 kph) 10 km or more
  • No significant weather
Temperatures Readings Precipitation
Current Temp
46°C
115°F
Dewpoint
11°C
52°F
Humidity 13%
Altimeter 29.44" Hg
Sea Level Pressure 997 mb
Field Elevation
372 m
1,220 ft
None Recorded

Additional weather within a 92.6km radius of OIAI

Map ICAO Location
OIAW 88.2km S/SW (213°)
VFR
VFR
MVFR
MVFR
IFR
IFR
LIFR
LIFR
Unknown
Unavailable
-
-

CheckWX.com is intended as a tool to help pilots better visualize weather data. It is not intended as a substitute for an official weather briefing obtained from a Flight Service Station. CheckWX.com does not meet the FAA requirements for an official pre-flight weather briefing. Therefore, it's important that pilots still call and obtain an official FSS pre-flight weather briefing.

© 2007-2015 CheckWX.com
17:52:46 UTC